createdAt,value
2019-02-11T00:02:46.381Z,0.50
2019-02-11T00:05:48.647Z,0.50
2019-02-11T00:08:50.915Z,0.40
2019-02-11T00:11:53.219Z,0.60
2019-02-11T00:14:55.469Z,0.40
2019-02-11T00:17:57.730Z,0.53
2019-02-11T00:21:00.056Z,0.47
2019-02-11T00:24:02.396Z,0.50
2019-02-11T00:27:04.658Z,0.50
2019-02-11T00:30:07.179Z,0.40
2019-02-11T00:33:09.455Z,0.50
2019-02-11T00:36:11.731Z,0.50
2019-02-11T00:39:13.993Z,0.40
2019-02-11T00:42:16.244Z,0.60
2019-02-11T00:45:18.544Z,0.67
2019-02-11T00:48:20.811Z,0.47
2019-02-11T00:51:23.052Z,0.60
2019-02-11T00:54:25.307Z,0.60
2019-02-11T00:57:27.604Z,0.43
2019-02-11T01:00:29.970Z,0.40
2019-02-11T01:03:32.278Z,0.40
2019-02-11T01:06:34.506Z,0.40
2019-02-11T01:09:36.749Z,0.50
2019-02-11T01:12:38.969Z,0.60
2019-02-11T01:15:41.311Z,0.50
2019-02-11T01:18:43.618Z,0.40
2019-02-11T01:21:45.924Z,0.50
2019-02-11T01:24:48.252Z,0.40
2019-02-11T01:27:50.571Z,0.60
2019-02-11T01:30:52.815Z,0.50
2019-02-11T01:33:55.044Z,0.50
2019-02-11T01:36:57.331Z,0.50
2019-02-11T01:39:59.641Z,0.40
2019-02-11T01:43:01.945Z,0.50
2019-02-11T01:46:04.227Z,0.50
2019-02-11T01:49:06.467Z,0.57
2019-02-11T01:52:08.745Z,0.50
2019-02-11T01:55:11.003Z,0.47
2019-02-11T01:58:13.244Z,0.60
2019-02-11T02:01:15.483Z,0.57
2019-02-11T02:04:17.728Z,0.60
2019-02-11T02:07:20.018Z,0.53
2019-02-11T02:10:22.300Z,0.60
2019-02-11T02:13:24.544Z,0.40
2019-02-11T02:16:26.853Z,0.60
2019-02-11T02:19:29.091Z,0.60
2019-02-11T02:22:31.392Z,0.60
2019-02-11T02:25:33.690Z,0.60
2019-02-11T02:28:35.923Z,0.60
2019-02-11T02:31:38.439Z,0.50
2019-02-11T02:34:40.706Z,0.50
2019-02-11T02:37:42.966Z,0.60
2019-02-11T02:40:45.220Z,0.60
2019-02-11T02:43:55.105Z,0.60
2019-02-11T02:46:49.828Z,0.63
2019-02-11T02:49:52.086Z,0.50
2019-02-11T02:52:54.314Z,0.60
2019-02-11T02:55:56.623Z,0.67
2019-02-11T02:58:58.886Z,0.70
2019-02-11T03:02:01.127Z,0.70
2019-02-11T03:05:03.727Z,0.83
2019-02-11T03:08:05.943Z,0.70
2019-02-11T03:11:08.207Z,0.80
2019-02-11T03:14:10.483Z,0.93
2019-02-11T03:17:12.835Z,0.73
2019-02-11T03:20:15.149Z,0.90
2019-02-11T03:23:17.416Z,0.80
2019-02-11T03:26:19.691Z,0.80
2019-02-11T03:29:21.932Z,1.20
2019-02-11T03:32:24.180Z,0.80
2019-02-11T03:35:26.450Z,0.90
2019-02-11T03:38:28.754Z,1.30
2019-02-11T03:41:31.111Z,1.40
2019-02-11T03:44:33.363Z,1.20
2019-02-11T03:47:35.660Z,1.20
2019-02-11T03:50:37.955Z,1.20
2019-02-11T03:53:40.252Z,1.20
2019-02-11T03:56:42.559Z,1.00
2019-02-11T03:59:44.905Z,1.00
2019-02-11T04:02:47.147Z,0.90
2019-02-11T04:05:49.423Z,1.27
2019-02-11T04:08:51.725Z,0.97
2019-02-11T04:11:53.983Z,1.10
2019-02-11T04:14:56.246Z,1.10
2019-02-11T04:17:58.519Z,0.90
2019-02-11T04:21:00.765Z,1.10
2019-02-11T04:24:03.039Z,1.00
2019-02-11T04:27:05.347Z,1.10
2019-02-11T04:30:07.811Z,1.10
2019-02-11T04:33:10.114Z,1.30
2019-02-11T04:36:12.376Z,1.00
2019-02-11T04:39:14.699Z,1.30
2019-02-11T04:42:16.996Z,1.50
2019-02-11T04:45:19.276Z,1.40
2019-02-11T04:48:21.539Z,1.13
2019-02-11T04:51:23.794Z,1.63
2019-02-11T04:54:26.068Z,1.20
2019-02-11T04:57:28.323Z,1.33
2019-02-11T05:00:30.628Z,1.10
2019-02-11T05:03:32.865Z,1.33
2019-02-11T05:06:35.136Z,1.50
2019-02-11T05:09:37.408Z,1.30
2019-02-11T05:12:39.653Z,1.30
2019-02-11T05:15:41.894Z,1.60
2019-02-11T05:18:44.184Z,1.60
2019-02-11T05:21:46.476Z,1.47
2019-02-11T05:24:48.798Z,1.70
2019-02-11T05:27:51.107Z,1.80
2019-02-11T05:30:53.355Z,1.53
2019-02-11T05:33:55.597Z,1.70
2019-02-11T05:36:57.889Z,1.47
2019-02-11T05:40:00.266Z,1.83
2019-02-11T05:43:02.467Z,1.77
2019-02-11T05:46:04.769Z,1.60
2019-02-11T05:49:07.012Z,1.70
2019-02-11T05:52:09.379Z,1.90
2019-02-11T05:55:11.704Z,1.80
2019-02-11T05:58:13.973Z,1.90
2019-02-11T06:01:16.265Z,1.73
2019-02-11T06:04:18.518Z,1.77
2019-02-11T06:07:20.785Z,1.87
2019-02-11T06:10:23.062Z,1.80
2019-02-11T06:13:25.336Z,2.13
2019-02-11T06:16:27.679Z,1.83
2019-02-11T06:19:30.087Z,2.00
2019-02-11T06:22:32.364Z,2.10
2019-02-11T06:25:34.610Z,2.60
2019-02-11T06:28:36.847Z,2.07
2019-02-11T06:31:39.085Z,3.83
2019-02-11T06:34:41.595Z,11.87
2019-02-11T06:37:43.936Z,3.10
2019-02-11T06:40:46.211Z,2.87
2019-02-11T06:43:48.588Z,2.37
2019-02-11T06:46:50.889Z,2.60
2019-02-11T06:49:53.211Z,2.50
2019-02-11T06:52:55.463Z,2.50
2019-02-11T06:55:57.716Z,3.30
2019-02-11T06:59:00.023Z,2.80
2019-02-11T07:02:02.382Z,2.73
2019-02-11T07:05:04.898Z,2.60
2019-02-11T07:08:08.019Z,2.40
2019-02-11T07:11:09.529Z,2.90
2019-02-11T07:14:11.816Z,2.60
2019-02-11T07:17:14.087Z,2.60
2019-02-11T07:20:16.443Z,3.00
2019-02-11T07:23:18.700Z,2.90
2019-02-11T07:26:21.005Z,2.73
2019-02-11T07:29:23.307Z,2.90
2019-02-11T07:32:25.557Z,3.10
2019-02-11T07:35:27.907Z,2.87
2019-02-11T07:38:30.183Z,3.17
2019-02-11T07:41:37.047Z,3.50
2019-02-11T07:44:42.979Z,3.30
2019-02-11T07:47:45.247Z,3.30
2019-02-11T07:50:47.520Z,4.00
2019-02-11T07:53:49.868Z,3.67
2019-02-11T07:56:52.186Z,3.77
2019-02-11T07:59:54.453Z,4.20
2019-02-11T08:02:56.734Z,3.90
2019-02-11T08:05:59.100Z,3.83
2019-02-11T08:09:01.470Z,3.80
2019-02-11T08:12:03.763Z,3.57
2019-02-11T08:15:06.297Z,3.50
2019-02-11T08:18:08.600Z,3.53
2019-02-11T08:21:10.881Z,3.97
2019-02-11T08:24:13.148Z,4.15
2019-02-11T08:27:15.419Z,4.23
2019-02-11T08:30:17.778Z,2.87
2019-02-11T08:33:20.084Z,4.17
2019-02-11T08:36:22.355Z,3.93
2019-02-11T08:39:24.656Z,3.53
2019-02-11T08:42:41.467Z,3.53
2019-02-11T08:45:47.012Z,3.50
2019-02-11T08:48:46.038Z,3.93
2019-02-11T08:51:48.316Z,3.40
2019-02-11T08:54:50.571Z,4.10
2019-02-11T08:57:52.807Z,3.93
2019-02-11T09:00:55.095Z,3.20
2019-02-11T09:03:57.402Z,3.50
2019-02-11T09:06:59.736Z,3.83
2019-02-11T09:10:02.014Z,4.57
2019-02-11T09:16:08.576Z,4.03
2019-02-11T09:19:10.836Z,4.03
2019-02-11T09:22:13.217Z,4.17
2019-02-11T09:25:15.604Z,5.00
2019-02-11T09:28:17.981Z,4.20
2019-02-11T09:31:20.313Z,4.23
2019-02-11T09:34:22.703Z,4.53
2019-02-11T09:37:24.963Z,4.87
2019-02-11T09:40:27.267Z,4.50
2019-02-11T09:43:29.679Z,4.27
2019-02-11T09:46:32.040Z,4.73
2019-02-11T09:49:34.383Z,4.47
2019-02-11T09:52:36.760Z,4.50
2019-02-11T09:55:39.078Z,4.10
2019-02-11T09:58:41.386Z,5.10
2019-02-11T10:01:43.761Z,4.30
2019-02-11T10:04:46.045Z,4.67
2019-02-11T10:07:48.338Z,4.47
2019-02-11T10:10:50.627Z,4.47
2019-02-11T10:13:52.923Z,4.20
2019-02-11T10:16:55.214Z,4.00
2019-02-11T10:19:57.491Z,4.83
2019-02-11T10:22:59.860Z,4.53
2019-02-11T10:26:02.164Z,4.10
2019-02-11T10:29:04.457Z,4.50
2019-02-11T10:32:06.806Z,4.43
2019-02-11T10:35:09.635Z,4.47
2019-02-11T10:38:11.907Z,4.40
2019-02-11T10:41:14.204Z,4.90
2019-02-11T10:44:16.483Z,4.13
2019-02-11T10:47:18.879Z,4.43
2019-02-11T10:50:21.243Z,4.40
2019-02-11T10:53:23.612Z,4.83
2019-02-11T10:56:25.859Z,4.50
2019-02-11T10:59:28.336Z,3.93
2019-02-11T11:02:30.658Z,4.00
2019-02-11T11:05:32.940Z,4.40
2019-02-11T11:08:35.311Z,4.17
2019-02-11T11:11:37.636Z,4.10
2019-02-11T11:14:39.953Z,4.77
2019-02-11T11:17:42.221Z,4.30
2019-02-11T11:20:44.504Z,4.33
2019-02-11T11:23:46.827Z,3.97
2019-02-11T11:26:49.156Z,4.60
2019-02-11T11:29:51.520Z,4.77
2019-02-11T11:32:53.811Z,4.90
2019-02-11T11:35:56.187Z,4.90
2019-02-11T11:38:58.726Z,4.73
2019-02-11T11:42:01.020Z,4.33
2019-02-11T11:45:03.732Z,4.47
2019-02-11T11:48:06.011Z,4.77
2019-02-11T11:51:08.350Z,4.73
2019-02-11T11:54:10.602Z,4.57
2019-02-11T11:57:12.877Z,4.70
2019-02-11T12:00:17.301Z,5.00
2019-02-11T12:03:19.596Z,4.60
2019-02-11T12:06:25.407Z,4.80
2019-02-11T12:09:24.410Z,6.57
2019-02-11T12:12:26.601Z,5.37
2019-02-11T12:15:28.897Z,4.67
2019-02-11T12:18:31.200Z,4.67
2019-02-11T12:21:33.506Z,4.57
2019-02-11T12:24:35.830Z,4.43
2019-02-11T12:27:38.157Z,5.00
2019-02-11T12:30:40.487Z,5.00
2019-02-11T12:33:42.854Z,5.00
2019-02-11T12:36:45.235Z,4.93
2019-02-11T12:39:47.595Z,4.80
2019-02-11T12:42:52.479Z,4.20
2019-02-11T12:45:52.168Z,4.87
2019-02-11T12:48:54.491Z,4.70
2019-02-11T12:51:56.819Z,4.67
2019-02-11T12:54:59.164Z,5.53
2019-02-11T12:58:01.486Z,6.40
2019-02-11T13:01:04.096Z,5.07
2019-02-11T13:04:06.412Z,4.67
2019-02-11T13:07:08.705Z,4.40
2019-02-11T13:10:12.738Z,4.10
2019-02-11T13:13:15.149Z,5.77
2019-02-11T13:16:17.398Z,4.17
2019-02-11T13:19:19.725Z,4.63
2019-02-11T13:22:22.095Z,5.20
2019-02-11T13:25:24.442Z,3.73
2019-02-11T13:28:26.706Z,4.00
2019-02-11T13:31:29.047Z,4.57
2019-02-11T13:34:31.348Z,3.57
2019-02-11T13:37:33.683Z,5.10
2019-02-11T13:40:36.094Z,4.13
2019-02-11T13:43:38.696Z,4.00
2019-02-11T13:46:41.183Z,4.00
2019-02-11T13:49:46.570Z,4.00
2019-02-11T13:52:45.962Z,3.93
2019-02-11T13:55:48.406Z,3.97
2019-02-11T13:58:52.243Z,4.20
2019-02-11T14:01:53.098Z,3.80
2019-02-11T14:04:56.264Z,4.07
2019-02-11T14:07:59.469Z,3.50
2019-02-11T14:11:02.235Z,3.67
2019-02-11T14:14:04.559Z,3.57
2019-02-11T14:17:07.544Z,3.47
2019-02-11T14:20:15.484Z,3.20
2019-02-11T14:23:20.678Z,3.10
2019-02-11T14:26:24.019Z,3.37
2019-02-11T14:29:26.586Z,3.00
2019-02-11T14:32:31.459Z,3.20
2019-02-11T14:35:32.013Z,3.27
2019-02-11T14:38:34.820Z,3.30
2019-02-11T14:41:39.011Z,2.87
2019-02-11T14:44:41.848Z,2.23
2019-02-11T14:47:44.849Z,3.27
2019-02-11T14:50:46.551Z,3.20
2019-02-11T14:53:48.827Z,3.23
2019-02-11T14:56:51.258Z,3.80
2019-02-11T14:59:53.922Z,3.17
2019-02-11T15:02:56.460Z,3.10
2019-02-11T15:05:59.921Z,2.50
2019-02-11T15:09:03.074Z,3.37
2019-02-11T15:12:05.316Z,3.77
2019-02-11T15:15:07.997Z,3.60
2019-02-11T15:18:10.311Z,3.23
2019-02-11T15:21:12.863Z,3.07
2019-02-11T15:24:15.141Z,3.30
2019-02-11T15:27:17.597Z,3.07
2019-02-11T15:30:19.815Z,3.23
2019-02-11T15:33:22.513Z,2.60
2019-02-11T15:36:24.945Z,3.27
2019-02-11T15:39:27.475Z,3.47
2019-02-11T15:42:29.839Z,2.90
2019-02-11T15:45:32.376Z,3.30
2019-02-11T15:48:42.646Z,3.00
2019-02-11T15:51:37.027Z,2.80
2019-02-11T15:54:39.344Z,2.90
2019-02-11T15:57:41.648Z,2.83
2019-02-11T16:00:43.959Z,3.00
2019-02-11T16:03:46.260Z,3.13
2019-02-11T16:06:48.622Z,2.90
2019-02-11T16:09:50.949Z,2.53
2019-02-11T16:12:53.257Z,2.70
2019-02-11T16:15:55.520Z,2.20
2019-02-11T16:18:57.793Z,2.50
2019-02-11T16:22:00.070Z,2.67
2019-02-11T16:25:02.406Z,2.80
2019-02-11T16:28:04.735Z,3.10
2019-02-11T16:31:07.031Z,3.03
2019-02-11T16:34:09.281Z,2.53
2019-02-11T16:37:11.595Z,3.10
2019-02-11T16:40:16.264Z,3.37
2019-02-11T16:43:18.544Z,3.30
2019-02-11T16:46:22.244Z,2.53
2019-02-11T16:49:23.265Z,3.30
2019-02-11T16:52:25.627Z,2.63
2019-02-11T16:55:27.888Z,2.23
2019-02-11T16:58:30.176Z,2.57
2019-02-11T17:01:32.433Z,3.10
2019-02-11T17:04:34.707Z,2.90
2019-02-11T17:07:41.836Z,3.20
2019-02-11T17:10:39.340Z,34.37
2019-02-11T17:13:41.631Z,20.20
2019-02-11T17:16:43.908Z,3.90
2019-02-11T17:19:46.156Z,2.60
2019-02-11T17:22:48.467Z,2.63
2019-02-11T17:25:50.720Z,2.90
2019-02-11T17:28:53.022Z,2.83
2019-02-11T17:31:55.352Z,2.30
2019-02-11T17:34:57.612Z,4.73
2019-02-11T17:37:59.907Z,2.70
2019-02-11T17:41:02.283Z,2.70
2019-02-11T17:44:04.604Z,2.80
2019-02-11T17:47:06.932Z,2.60
2019-02-11T17:50:09.736Z,2.50
2019-02-11T17:53:12.835Z,2.80
2019-02-11T17:56:22.122Z,2.73
2019-02-11T17:59:24.546Z,2.47
2019-02-11T18:02:26.923Z,2.83
2019-02-11T18:05:29.926Z,2.50
2019-02-11T18:08:33.617Z,4.30
2019-02-11T18:11:36.069Z,13.07
2019-02-11T18:14:38.332Z,3.63
2019-02-11T18:17:40.745Z,3.17
2019-02-11T18:20:43.075Z,2.73
2019-02-11T18:23:45.346Z,2.57
2019-02-11T18:26:47.680Z,2.80
2019-02-11T18:29:49.941Z,2.80
2019-02-11T18:32:52.327Z,2.60
2019-02-11T18:35:54.612Z,2.20
2019-02-11T18:38:56.932Z,2.93
2019-02-11T18:41:59.272Z,2.70
2019-02-11T18:45:01.877Z,2.63
2019-02-11T18:48:07.070Z,2.70
2019-02-11T18:51:10.307Z,2.43
2019-02-11T18:54:12.602Z,2.80
2019-02-11T18:57:15.127Z,2.77
2019-02-11T19:00:18.214Z,12.63
2019-02-11T19:03:20.497Z,9.23
2019-02-11T19:06:22.822Z,3.13
2019-02-11T19:09:25.103Z,3.07
2019-02-11T19:12:27.387Z,3.30
2019-02-11T19:15:29.790Z,2.70
2019-02-11T19:18:32.136Z,2.57
2019-02-11T19:21:34.515Z,2.77
2019-02-11T19:24:37.665Z,3.60
2019-02-11T19:27:40.052Z,3.57
2019-02-11T19:30:42.446Z,3.00
2019-02-11T19:33:44.721Z,3.50
2019-02-11T19:36:46.997Z,3.70
2019-02-11T19:39:49.298Z,3.33
2019-02-11T19:42:51.595Z,3.43
2019-02-11T19:45:54.025Z,3.60
2019-02-11T19:48:56.579Z,3.57
2019-02-11T19:51:58.957Z,3.47
2019-02-11T19:55:01.278Z,3.60
2019-02-11T19:58:03.669Z,3.40
2019-02-11T20:01:05.912Z,3.37
2019-02-11T20:04:08.758Z,3.40
2019-02-11T20:07:12.026Z,3.77
2019-02-11T20:10:14.735Z,9.37
2019-02-11T20:13:17.315Z,16.00
2019-02-11T20:16:19.581Z,4.00
2019-02-11T20:19:22.961Z,3.47
2019-02-11T20:22:25.940Z,3.50
2019-02-11T20:25:29.031Z,3.67
2019-02-11T20:28:31.388Z,3.67
2019-02-11T20:31:34.024Z,4.00
2019-02-11T20:34:40.274Z,4.27
2019-02-11T20:37:42.796Z,3.70
2019-02-11T20:40:45.125Z,3.77
2019-02-11T20:43:47.485Z,3.97
2019-02-11T20:46:49.998Z,3.43
2019-02-11T20:49:52.625Z,3.13
2019-02-11T20:52:55.517Z,5.07
2019-02-11T20:55:58.267Z,9.90
2019-02-11T20:59:00.519Z,3.67
2019-02-11T21:02:02.915Z,3.90
2019-02-11T21:05:06.173Z,3.37
2019-02-11T21:08:09.514Z,3.87
2019-02-11T21:11:12.671Z,2.80
2019-02-11T21:14:14.639Z,3.43
2019-02-11T21:17:17.104Z,3.67
2019-02-11T21:20:22.360Z,3.90
2019-02-11T21:23:24.823Z,3.07
2019-02-11T21:26:27.278Z,3.20
2019-02-11T21:29:30.035Z,3.20
2019-02-11T21:32:34.185Z,3.53
2019-02-11T21:35:36.682Z,4.40
2019-02-11T21:38:39.388Z,3.77
2019-02-11T21:41:43.407Z,2.90
2019-02-11T21:44:45.953Z,2.13
2019-02-11T21:47:48.531Z,1.60
2019-02-11T21:50:51.206Z,1.73
2019-02-11T21:53:53.853Z,1.97
2019-02-11T21:56:57.118Z,1.83
2019-02-11T21:59:59.470Z,1.80
2019-02-11T22:03:01.940Z,1.83
2019-02-11T22:06:05.036Z,1.33
2019-02-11T22:09:07.579Z,0.93
2019-02-11T22:12:09.999Z,1.20
2019-02-11T22:15:13.437Z,1.17
2019-02-11T22:18:15.960Z,1.53
2019-02-11T22:21:18.519Z,0.90
2019-02-11T22:24:21.088Z,1.93
2019-02-11T22:27:23.646Z,2.40
2019-02-11T22:30:25.908Z,2.60
2019-02-11T22:33:28.537Z,3.50
2019-02-11T22:36:31.097Z,4.03
2019-02-11T22:39:34.032Z,3.83
2019-02-11T22:42:36.463Z,4.53
2019-02-11T22:45:41.279Z,4.80
2019-02-11T22:48:43.207Z,5.27
2019-02-11T22:51:46.032Z,4.87
2019-02-11T22:54:48.326Z,4.90
2019-02-11T22:57:50.595Z,3.87
2019-02-11T23:00:58.151Z,5.10
2019-02-11T23:04:01.696Z,4.70
2019-02-11T23:07:04.108Z,4.23
2019-02-11T23:10:06.404Z,5.17
2019-02-11T23:13:08.964Z,4.43
2019-02-11T23:16:12.644Z,4.50
2019-02-11T23:19:15.296Z,4.90
2019-02-11T23:22:17.539Z,4.87
2019-02-11T23:25:20.124Z,5.07
2019-02-11T23:28:22.787Z,5.20
2019-02-11T23:31:25.513Z,5.27
2019-02-11T23:34:28.139Z,5.97
2019-02-11T23:37:30.658Z,5.97
2019-02-11T23:40:33.340Z,5.83
2019-02-11T23:43:35.996Z,6.67
2019-02-11T23:46:38.680Z,5.67
2019-02-11T23:49:41.217Z,6.10
2019-02-11T23:52:43.808Z,6.30
2019-02-11T23:55:46.373Z,5.47
2019-02-11T23:58:49.728Z,5.73
